createdAt,value
2022-11-25T00:01:45.024Z,100386.13
2022-11-25T00:04:16.453Z,100380.73
2022-11-25T00:06:46.858Z,100380.19
2022-11-25T00:09:17.336Z,100380.31
2022-11-25T00:11:47.896Z,100374.55
2022-11-25T00:14:18.492Z,100374.31
2022-11-25T00:16:49.084Z,100372.37
2022-11-25T00:19:19.763Z,100368.56
2022-11-25T00:21:50.450Z,100359.14
2022-11-25T00:24:20.918Z,100355.36
2022-11-25T00:26:51.455Z,100352.96
2022-11-25T00:29:22.280Z,100355.07
2022-11-25T00:31:52.953Z,100355.58
2022-11-25T00:34:23.449Z,100353.83
2022-11-25T00:36:54.301Z,100355.73
2022-11-25T00:39:24.594Z,100354.17
2022-11-25T00:42:12.342Z,100359.45
2022-11-25T00:44:43.206Z,100361.10
2022-11-25T00:47:15.407Z,100360.79
2022-11-25T00:49:48.287Z,100361.33
2022-11-25T00:52:20.586Z,100361.48
2022-11-25T00:54:52.177Z,100359.91
2022-11-25T00:57:24.680Z,100360.05
2022-11-25T00:59:55.235Z,100357.38
2022-11-25T01:02:26.508Z,100358.05
2022-11-25T01:04:58.313Z,100359.96
2022-11-25T01:07:29.388Z,100361.70
2022-11-25T01:09:59.821Z,100368.60
2022-11-25T01:12:30.339Z,100369.66
2022-11-25T01:15:00.842Z,100371.80
2022-11-25T01:17:31.519Z,100365.54
2022-11-25T01:20:03.703Z,100367.50
2022-11-25T01:22:34.373Z,100368.73
2022-11-25T01:25:07.006Z,100373.64
2022-11-25T01:27:40.797Z,100370.69
2022-11-25T01:30:12.852Z,100376.73
2022-11-25T01:32:43.385Z,100378.42
2022-11-25T01:35:14.253Z,100379.23
2022-11-25T01:37:44.877Z,100376.75
2022-11-25T01:40:15.656Z,100379.64
2022-11-25T01:42:47.661Z,100374.70
2022-11-25T01:45:35.743Z,100374.77
2022-11-25T01:48:14.284Z,100373.63
2022-11-25T01:50:45.435Z,100372.80
2022-11-25T01:53:17.745Z,100369.77
2022-11-25T01:55:53.606Z,100369.55
2022-11-25T01:58:27.928Z,100370.17
2022-11-25T02:00:58.886Z,100367.89
2022-11-25T02:03:34.676Z,100368.73
2022-11-25T02:06:11.815Z,100368.96
2022-11-25T02:08:44.413Z,100367.52
2022-11-25T02:11:15.944Z,100365.92
2022-11-25T02:13:48.428Z,100367.23
2022-11-25T02:16:19.196Z,100369.61
2022-11-25T02:18:50.492Z,100371.64
2022-11-25T02:21:26.904Z,100369.48
2022-11-25T02:24:03.133Z,100377.44
2022-11-25T02:26:33.973Z,100378.90
2022-11-25T02:29:04.463Z,100384.05
2022-11-25T02:31:35.116Z,100380.64
2022-11-25T02:34:05.702Z,100377.94
2022-11-25T02:36:37.785Z,100375.04
2022-11-25T02:39:08.589Z,100379.61
2022-11-25T02:41:43.459Z,100375.77
2022-11-25T02:44:14.353Z,100372.45
2022-11-25T02:46:45.041Z,100367.95
2022-11-25T02:49:15.816Z,100364.27
2022-11-25T02:51:47.777Z,100363.39
2022-11-25T02:54:18.851Z,100359.70
2022-11-25T02:56:52.059Z,100355.00
2022-11-25T02:59:22.549Z,100355.48
2022-11-25T03:01:53.137Z,100355.11
2022-11-25T03:04:23.866Z,100358.30
2022-11-25T03:06:54.381Z,100358.22
2022-11-25T03:09:24.783Z,100354.77
2022-11-25T03:12:13.076Z,100355.31
2022-11-25T03:14:43.587Z,100355.61
2022-11-25T03:17:15.732Z,100354.04
2022-11-25T03:19:46.275Z,100352.79
2022-11-25T03:22:16.741Z,100352.61
2022-11-25T03:24:47.183Z,100352.02
2022-11-25T03:27:18.052Z,100353.79
2022-11-25T03:29:49.405Z,100353.83
2022-11-25T03:32:19.894Z,100356.02
2022-11-25T03:34:50.541Z,100351.98
2022-11-25T03:37:21.190Z,100352.84
2022-11-25T03:39:51.794Z,100351.67
2022-11-25T03:42:22.203Z,100353.41
2022-11-25T03:44:53.103Z,100349.67
2022-11-25T03:47:23.850Z,100344.89
2022-11-25T03:49:54.423Z,100339.42
2022-11-25T03:52:25.195Z,100335.56
2022-11-25T03:54:55.830Z,100332.56
2022-11-25T03:57:30.030Z,100334.08
2022-11-25T03:59:59.576Z,100335.25
2022-11-25T04:02:30.187Z,100338.04
2022-11-25T04:05:00.813Z,100339.77
2022-11-25T04:07:31.498Z,100340.82
2022-11-25T04:10:02.466Z,100345.63
2022-11-25T04:12:50.136Z,100343.91
2022-11-25T04:15:23.730Z,100343.13
2022-11-25T04:17:56.480Z,100343.91
2022-11-25T04:20:27.423Z,100349.48
2022-11-25T04:23:03.356Z,100349.55
2022-11-25T04:25:35.402Z,100350.21
2022-11-25T04:28:10.193Z,100350.56
2022-11-25T04:30:41.342Z,100348.59
2022-11-25T04:33:12.201Z,100348.39
2022-11-25T04:35:42.839Z,100349.79
2022-11-25T04:38:13.847Z,100355.58
2022-11-25T04:40:44.496Z,100353.70
2022-11-25T04:43:20.502Z,100357.67
2022-11-25T04:46:13.577Z,100358.05
2022-11-25T04:48:45.007Z,100361.26
2022-11-25T04:51:18.541Z,100366.72
2022-11-25T04:53:49.734Z,100368.29
2022-11-25T04:56:21.292Z,100369.54
2022-11-25T04:59:11.646Z,100362.68
2022-11-25T05:01:48.727Z,100352.69
2022-11-25T05:04:35.332Z,100337.45
2022-11-25T05:07:06.341Z,100334.18
2022-11-25T05:09:38.278Z,100327.91
2022-11-25T05:12:16.255Z,100324.61
2022-11-25T05:14:47.148Z,100324.33
2022-11-25T05:17:19.405Z,100328.42
2022-11-25T05:19:50.514Z,100330.36
2022-11-25T05:22:24.182Z,100330.92
2022-11-25T05:24:55.285Z,100334.11
2022-11-25T05:27:27.050Z,100338.86
2022-11-25T05:29:58.228Z,100341.16
2022-11-25T05:32:28.950Z,100342.53
2022-11-25T05:35:00.994Z,100345.37
2022-11-25T05:37:31.701Z,100342.97
2022-11-25T05:40:07.551Z,100344.98
2022-11-25T05:42:40.979Z,100347.04
2022-11-25T05:45:12.821Z,100355.54
2022-11-25T05:47:45.819Z,100367.47
2022-11-25T05:50:17.917Z,100376.39
2022-11-25T05:53:06.524Z,100393.71
2022-11-25T05:55:38.532Z,100389.67
2022-11-25T05:58:13.260Z,100391.93
2022-11-25T06:00:45.164Z,100391.03
2022-11-25T06:03:15.713Z,100387.17
2022-11-25T06:05:46.415Z,100382.88
2022-11-25T06:08:17.394Z,100382.91
2022-11-25T06:10:47.893Z,100373.59
2022-11-25T06:13:18.345Z,100375.66
2022-11-25T06:16:17.927Z,100387.55
2022-11-25T06:18:49.201Z,100399.95
2022-11-25T06:21:20.311Z,100409.39
2022-11-25T06:24:02.270Z,100418.28
2022-11-25T06:26:32.919Z,100420.36
2022-11-25T06:29:03.531Z,100416.52
2022-11-25T06:31:34.033Z,100413.35
2022-11-25T06:34:13.060Z,100408.92
2022-11-25T06:36:44.013Z,100412.02
2022-11-25T06:39:14.468Z,100421.08
2022-11-25T06:41:46.283Z,100420.11
2022-11-25T06:44:17.256Z,100424.96
2022-11-25T06:46:47.761Z,100439.40
2022-11-25T06:49:18.492Z,100451.24
2022-11-25T06:51:50.084Z,100460.48
2022-11-25T06:54:20.732Z,100464.31
2022-11-25T06:56:53.898Z,100467.63
2022-11-25T06:59:24.389Z,100464.00
2022-11-25T07:01:55.139Z,100464.59
2022-11-25T07:04:25.621Z,100468.84
2022-11-25T07:06:56.281Z,100469.08
2022-11-25T07:09:26.891Z,100468.73
2022-11-25T07:11:57.585Z,100465.24
2022-11-25T07:14:28.384Z,100458.31
2022-11-25T07:16:58.941Z,100463.06
2022-11-25T07:19:33.252Z,100471.66
2022-11-25T07:22:03.965Z,100468.84
2022-11-25T07:24:35.295Z,100472.48
2022-11-25T07:27:06.878Z,100472.45
2022-11-25T07:29:57.856Z,100475.75
2022-11-25T07:32:29.591Z,100476.42
2022-11-25T07:35:00.059Z,100475.38
2022-11-25T07:37:30.810Z,100466.45
2022-11-25T07:40:01.422Z,100460.52
2022-11-25T07:42:32.301Z,100457.89
2022-11-25T07:45:02.785Z,100456.11
2022-11-25T07:47:48.695Z,100458.52
2022-11-25T07:50:19.461Z,100464.42
2022-11-25T07:52:50.046Z,100459.98
2022-11-25T07:55:20.640Z,100462.67
2022-11-25T07:57:51.075Z,100464.83
2022-11-25T08:00:23.551Z,100472.38
2022-11-25T08:02:54.645Z,100472.05
2022-11-25T08:05:25.271Z,100466.30
2022-11-25T08:07:56.064Z,100465.83
2022-11-25T08:10:26.595Z,100472.34
2022-11-25T08:12:57.216Z,100470.62
2022-11-25T08:15:28.244Z,100471.52
2022-11-25T08:17:58.913Z,100471.20
2022-11-25T08:20:31.488Z,100471.89
2022-11-25T08:23:02.930Z,100473.96
2022-11-25T08:25:32.786Z,100477.61
2022-11-25T08:28:03.691Z,100478.21
2022-11-25T08:30:37.421Z,100479.09
2022-11-25T08:33:08.102Z,100485.04
2022-11-25T08:35:38.880Z,100487.13
2022-11-25T08:38:10.705Z,100486.80
2022-11-25T08:40:45.466Z,100488.95
2022-11-25T08:43:17.253Z,100486.45
2022-11-25T08:45:47.580Z,100489.86
2022-11-25T08:48:19.936Z,100497.58
2022-11-25T08:50:53.704Z,100499.48
2022-11-25T08:53:24.780Z,100495.38
2022-11-25T08:55:55.428Z,100501.33
2022-11-25T08:58:26.055Z,100504.88
2022-11-25T09:00:56.809Z,100507.88
2022-11-25T09:03:27.431Z,100505.86
2022-11-25T09:05:58.095Z,100513.34
2022-11-25T09:08:28.797Z,100507.55
2022-11-25T09:10:59.864Z,100508.41
2022-11-25T09:13:30.755Z,100512.72
2022-11-25T09:16:02.190Z,100518.20
2022-11-25T09:18:32.568Z,100523.24
2022-11-25T09:21:10.968Z,100526.08
2022-11-25T09:23:42.451Z,100526.83
2022-11-25T09:26:22.181Z,100531.83
2022-11-25T09:28:52.704Z,100539.42
2022-11-25T09:31:23.968Z,100539.87
2022-11-25T09:33:53.147Z,100542.39
2022-11-25T09:36:24.871Z,100546.64
2022-11-25T09:38:55.489Z,100552.30
2022-11-25T09:42:06.460Z,100549.76
2022-11-25T09:45:06.609Z,100556.21
2022-11-25T09:47:58.285Z,100568.30
2022-11-25T09:50:36.720Z,100572.71
2022-11-25T09:53:23.458Z,100570.62
2022-11-25T09:56:03.303Z,100569.09
2022-11-25T09:58:37.300Z,100565.98
2022-11-25T10:01:15.543Z,100568.10
2022-11-25T10:03:50.531Z,100571.05
2022-11-25T10:06:26.518Z,100580.35
2022-11-25T10:09:00.156Z,100587.38
2022-11-25T10:11:43.922Z,100593.77
2022-11-25T10:14:22.720Z,100594.39
2022-11-25T10:16:57.965Z,100595.64
2022-11-25T10:19:38.163Z,100599.38
2022-11-25T10:22:22.524Z,100600.61
2022-11-25T10:24:55.850Z,100607.25
2022-11-25T10:27:37.434Z,100605.50
2022-11-25T10:30:14.425Z,100609.52
2022-11-25T10:32:50.502Z,100616.92
2022-11-25T10:35:30.824Z,100613.95
2022-11-25T10:38:04.374Z,100612.23
2022-11-25T10:40:35.072Z,100617.87
2022-11-25T10:43:13.836Z,100613.36
2022-11-25T10:45:52.542Z,100612.12
2022-11-25T10:48:45.666Z,100615.64
2022-11-25T10:51:31.409Z,100616.48
2022-11-25T10:54:26.949Z,100619.40
2022-11-25T10:57:01.108Z,100614.27
2022-11-25T10:59:34.405Z,100615.42
2022-11-25T11:02:22.276Z,100614.59
2022-11-25T11:04:59.605Z,100619.58
2022-11-25T11:07:33.161Z,100618.59
2022-11-25T11:10:19.996Z,100618.66
2022-11-25T11:13:01.440Z,100624.38
2022-11-25T11:15:31.846Z,100624.09
2022-11-25T11:18:16.001Z,100630.52
2022-11-25T11:20:51.450Z,100632.16
2022-11-25T11:23:22.205Z,100636.83
2022-11-25T11:26:01.543Z,100639.77
2022-11-25T11:28:41.325Z,100644.67
2022-11-25T11:31:20.944Z,100642.55
2022-11-25T11:33:58.883Z,100643.91
2022-11-25T11:36:42.798Z,100644.58
2022-11-25T11:39:29.906Z,100645.93
2022-11-25T11:42:10.626Z,100642.48
2022-11-25T11:44:55.877Z,100639.69
2022-11-25T11:47:37.199Z,100641.55
2022-11-25T11:50:24.614Z,100638.89
2022-11-25T11:53:03.500Z,100638.75
2022-11-25T11:56:00.288Z,100637.75
2022-11-25T11:58:58.490Z,100644.29
2022-11-25T12:01:41.799Z,100646.91
2022-11-25T12:04:22.426Z,100646.61
2022-11-25T12:07:04.249Z,100648.37
2022-11-25T12:09:40.525Z,100645.16
2022-11-25T12:12:19.081Z,100649.83
2022-11-25T12:14:52.828Z,100656.98
2022-11-25T12:17:28.676Z,100653.71
2022-11-25T12:20:04.710Z,100655.38
2022-11-25T12:22:42.044Z,100661.03
2022-11-25T12:25:20.010Z,100665.91
2022-11-25T12:27:55.709Z,100668.70
2022-11-25T12:30:30.795Z,100671.17
2022-11-25T12:33:08.005Z,100669.86
2022-11-25T12:35:47.606Z,100676.60
2022-11-25T12:38:31.586Z,100677.97
2022-11-25T12:41:13.600Z,100677.80
2022-11-25T12:43:48.543Z,100680.52
2022-11-25T12:46:36.176Z,100681.60
2022-11-25T12:49:15.212Z,100683.16
2022-11-25T12:52:12.129Z,100688.73
2022-11-25T12:55:04.049Z,100687.95
2022-11-25T12:58:12.798Z,100695.80
2022-11-25T13:01:25.949Z,100701.41
2022-11-25T13:04:25.622Z,100704.48
2022-11-25T13:07:26.292Z,100710.70
2022-11-25T13:10:25.182Z,100714.34
2022-11-25T13:13:08.490Z,100715.20
2022-11-25T13:15:43.568Z,100717.92
2022-11-25T13:18:17.880Z,100720.92
2022-11-25T13:20:53.820Z,100719.83
2022-11-25T13:23:32.938Z,100725.55
2022-11-25T13:26:37.799Z,100725.95
2022-11-25T13:29:56.194Z,100732.58
2022-11-25T13:32:36.609Z,100735.65
2022-11-25T13:35:41.335Z,100737.48
2022-11-25T13:38:49.033Z,100738.65
2022-11-25T13:41:35.658Z,100742.02
2022-11-25T13:44:16.510Z,100740.46
2022-11-25T13:46:49.685Z,100744.52
2022-11-25T13:49:34.533Z,100742.59
2022-11-25T13:52:23.341Z,100745.70
2022-11-25T13:54:58.405Z,100753.66
2022-11-25T13:57:31.455Z,100759.49
2022-11-25T14:00:05.425Z,100758.71
2022-11-25T14:02:46.693Z,100759.92
2022-11-25T14:05:55.151Z,100764.48
2022-11-25T14:08:38.138Z,100762.39
2022-11-25T14:11:36.791Z,100764.60
2022-11-25T14:14:28.879Z,100772.80
2022-11-25T14:17:21.926Z,100774.58
2022-11-25T14:20:07.845Z,100778.11
2022-11-25T14:23:01.326Z,100776.05
2022-11-25T14:25:44.176Z,100779.17
2022-11-25T14:28:28.195Z,100785.55
2022-11-25T14:31:08.284Z,100784.58
2022-11-25T14:33:45.852Z,100792.64
2022-11-25T14:36:20.933Z,100791.42
2022-11-25T14:38:59.652Z,100791.48
2022-11-25T14:41:34.687Z,100796.77
2022-11-25T14:44:12.623Z,100797.95
2022-11-25T14:46:56.058Z,100806.26
2022-11-25T14:49:49.123Z,100812.29
2022-11-25T14:52:29.431Z,100816.30
2022-11-25T14:55:01.861Z,100818.88
2022-11-25T14:57:37.047Z,100822.33
2022-11-25T15:00:11.034Z,100820.88
2022-11-25T15:02:54.470Z,100829.84
2022-11-25T15:05:27.331Z,100837.61
2022-11-25T15:08:02.286Z,100845.04
2022-11-25T15:10:37.515Z,100845.12
2022-11-25T15:13:14.435Z,100842.73
2022-11-25T15:15:48.632Z,100845.75
2022-11-25T15:18:23.321Z,100847.23
2022-11-25T15:20:59.407Z,100848.31
2022-11-25T15:23:34.558Z,100852.50
2022-11-25T15:26:16.360Z,100855.63
2022-11-25T15:28:47.041Z,100861.08
2022-11-25T15:31:22.056Z,100859.95
2022-11-25T15:33:57.858Z,100859.45
2022-11-25T15:36:28.708Z,100858.70
2022-11-25T15:39:16.771Z,100859.90
2022-11-25T15:41:48.775Z,100867.77
2022-11-25T15:44:24.598Z,100869.15
2022-11-25T15:47:00.489Z,100865.25
2022-11-25T15:49:31.048Z,100874.84
2022-11-25T15:52:05.393Z,100876.23
2022-11-25T15:54:43.842Z,100880.58
2022-11-25T15:57:23.009Z,100886.05
2022-11-25T16:00:14.369Z,100892.32
2022-11-25T16:02:55.620Z,100896.13
2022-11-25T16:05:35.582Z,100903.41
2022-11-25T16:08:25.326Z,100901.70
2022-11-25T16:10:59.424Z,100906.01
2022-11-25T16:13:40.221Z,100903.95
2022-11-25T16:16:22.916Z,100901.05
2022-11-25T16:19:17.537Z,100902.73
2022-11-25T16:21:53.336Z,100906.02
2022-11-25T16:24:32.797Z,100907.02
2022-11-25T16:27:05.542Z,100910.13
2022-11-25T16:29:38.148Z,100915.21
2022-11-25T16:32:16.587Z,100918.92
2022-11-25T16:34:47.650Z,100918.40
2022-11-25T16:37:18.380Z,100924.42
2022-11-25T16:39:49.028Z,100927.41
2022-11-25T16:42:22.761Z,100932.31
2022-11-25T16:44:54.335Z,100934.67
2022-11-25T16:47:26.809Z,100929.48
2022-11-25T16:49:57.809Z,100925.85
2022-11-25T16:52:28.332Z,100930.81
2022-11-25T16:54:58.755Z,100938.39
2022-11-25T16:57:29.545Z,100941.79
2022-11-25T17:00:03.332Z,100949.59
2022-11-25T17:02:34.111Z,100950.35
2022-11-25T17:05:18.576Z,100957.23
2022-11-25T17:07:50.956Z,100955.86
2022-11-25T17:10:22.373Z,100956.26
2022-11-25T17:12:53.127Z,100960.02
2022-11-25T17:15:35.886Z,100969.38
2022-11-25T17:18:08.644Z,100974.86
2022-11-25T17:20:39.144Z,100983.55
2022-11-25T17:23:17.300Z,100988.16
2022-11-25T17:25:51.040Z,100993.81
2022-11-25T17:28:22.714Z,100996.66
2022-11-25T17:30:53.277Z,101004.58
2022-11-25T17:33:25.528Z,101000.54
2022-11-25T17:35:56.185Z,101003.69
2022-11-25T17:38:26.872Z,101005.97
2022-11-25T17:40:57.375Z,101010.92
2022-11-25T17:43:33.177Z,101017.38
2022-11-25T17:46:10.119Z,101024.04
2022-11-25T17:48:42.299Z,101029.79
2022-11-25T17:51:13.729Z,101029.89
2022-11-25T17:53:42.860Z,101031.95
2022-11-25T17:56:23.921Z,101033.67
2022-11-25T17:58:55.128Z,101038.69
2022-11-25T18:01:25.848Z,101044.36
2022-11-25T18:03:57.968Z,101047.73
2022-11-25T18:06:28.826Z,101050.25
2022-11-25T18:08:59.768Z,101056.27
2022-11-25T18:11:32.424Z,101060.48
2022-11-25T18:14:03.144Z,101061.64
2022-11-25T18:16:35.361Z,101066.77
2022-11-25T18:19:06.031Z,101068.02
2022-11-25T18:21:37.326Z,101066.13
2022-11-25T18:24:08.391Z,101068.76
2022-11-25T18:26:44.672Z,101068.95
2022-11-25T18:29:22.498Z,101072.98
2022-11-25T18:31:53.553Z,101080.79
2022-11-25T18:34:25.118Z,101089.16
2022-11-25T18:36:56.119Z,101094.21
2022-11-25T18:39:26.800Z,101102.45
2022-11-25T18:41:59.999Z,101109.12
2022-11-25T18:44:31.393Z,101116.49
2022-11-25T18:47:01.946Z,101120.69
2022-11-25T18:49:32.389Z,101124.23
2022-11-25T18:52:02.822Z,101127.73
2022-11-25T18:54:33.469Z,101124.41
2022-11-25T18:57:04.903Z,101129.00
2022-11-25T18:59:35.011Z,101133.66
2022-11-25T19:02:11.409Z,101132.15
2022-11-25T19:04:42.119Z,101136.63
2022-11-25T19:07:12.693Z,101142.13
2022-11-25T19:09:43.226Z,101145.51
2022-11-25T19:12:21.282Z,101149.04
2022-11-25T19:14:52.639Z,101152.03
2022-11-25T19:17:26.093Z,101162.38
2022-11-25T19:19:56.672Z,101173.96
2022-11-25T19:22:27.080Z,101181.19
2022-11-25T19:24:59.037Z,101188.41
2022-11-25T19:27:29.670Z,101191.95
2022-11-25T19:30:00.285Z,101193.90
2022-11-25T19:32:32.342Z,101193.95
2022-11-25T19:35:08.674Z,101193.67
2022-11-25T19:37:39.196Z,101198.46
2022-11-25T19:40:17.318Z,101205.38
2022-11-25T19:42:48.392Z,101211.02
2022-11-25T19:45:21.376Z,101215.27
2022-11-25T19:47:53.340Z,101226.88
2022-11-25T19:50:27.089Z,101233.70
2022-11-25T19:52:57.794Z,101246.33
2022-11-25T19:55:29.927Z,101252.60
2022-11-25T19:58:00.728Z,101247.70
2022-11-25T20:00:31.202Z,101248.20
2022-11-25T20:03:02.155Z,101247.09
2022-11-25T20:05:36.559Z,101246.86
2022-11-25T20:08:07.526Z,101249.27
2022-11-25T20:10:38.435Z,101258.16
2022-11-25T20:13:10.903Z,101261.51
2022-11-25T20:15:42.320Z,101265.73
2022-11-25T20:18:20.409Z,101269.94
2022-11-25T20:20:57.330Z,101272.44
2022-11-25T20:23:30.953Z,101277.58
2022-11-25T20:26:02.014Z,101282.56
2022-11-25T20:28:35.432Z,101283.11
2022-11-25T20:31:06.092Z,101287.21
2022-11-25T20:33:36.674Z,101293.23
2022-11-25T20:36:14.006Z,101294.09
2022-11-25T20:38:47.411Z,101299.35
2022-11-25T20:41:22.902Z,101306.73
2022-11-25T20:43:58.355Z,101310.09
2022-11-25T20:46:30.676Z,101318.17
2022-11-25T20:49:03.711Z,101320.33
2022-11-25T20:51:34.616Z,101324.89
2022-11-25T20:54:09.120Z,101327.69
2022-11-25T20:56:40.007Z,101327.70
2022-11-25T20:59:22.006Z,101331.02
2022-11-25T21:01:54.541Z,101330.69
2022-11-25T21:04:25.402Z,101334.53
2022-11-25T21:06:56.616Z,101336.83
2022-11-25T21:09:32.945Z,101336.65
2022-11-25T21:12:04.084Z,101340.19
2022-11-25T21:14:34.822Z,101346.18
2022-11-25T21:17:06.130Z,101353.58
2022-11-25T21:19:37.163Z,101355.89
2022-11-25T21:22:08.584Z,101359.94
2022-11-25T21:24:40.059Z,101359.11
2022-11-25T21:27:15.711Z,101361.27
2022-11-25T21:29:47.738Z,101366.05
2022-11-25T21:32:23.069Z,101370.84
2022-11-25T21:34:53.876Z,101369.13
2022-11-25T21:37:32.073Z,101367.23
2022-11-25T21:40:03.139Z,101367.79
2022-11-25T21:42:34.092Z,101371.86
2022-11-25T21:45:04.949Z,101375.09
2022-11-25T21:47:35.831Z,101376.69
2022-11-25T21:50:14.673Z,101377.45
2022-11-25T21:52:45.309Z,101375.27
2022-11-25T21:55:17.301Z,101371.89
2022-11-25T21:57:47.804Z,101373.75
2022-11-25T22:00:25.238Z,101375.58
2022-11-25T22:02:56.364Z,101381.77
2022-11-25T22:05:26.920Z,101382.52
2022-11-25T22:07:57.525Z,101382.98
2022-11-25T22:10:28.423Z,101384.84
2022-11-25T22:12:59.019Z,101388.98
2022-11-25T22:15:29.695Z,101385.77
2022-11-25T22:18:01.279Z,101383.95
2022-11-25T22:20:34.305Z,101388.61
2022-11-25T22:23:14.593Z,101394.85
2022-11-25T22:25:45.954Z,101402.65
2022-11-25T22:28:16.111Z,101402.94
2022-11-25T22:30:50.681Z,101397.09
2022-11-25T22:33:22.491Z,101396.98
2022-11-25T22:35:52.890Z,101403.70
2022-11-25T22:38:23.788Z,101405.83
2022-11-25T22:40:57.740Z,101409.38
2022-11-25T22:43:32.860Z,101411.00
2022-11-25T22:46:04.243Z,101418.41
2022-11-25T22:48:34.835Z,101422.83
2022-11-25T22:51:06.025Z,101426.53
2022-11-25T22:53:36.535Z,101431.27
2022-11-25T22:56:14.410Z,101431.34
2022-11-25T22:58:47.316Z,101434.34
2022-11-25T23:01:19.219Z,101432.81
2022-11-25T23:03:49.848Z,101436.54
2022-11-25T23:06:20.364Z,101441.33
2022-11-25T23:08:51.037Z,101443.66
2022-11-25T23:11:22.889Z,101447.74
2022-11-25T23:13:53.790Z,101451.84
2022-11-25T23:16:24.246Z,101456.60
2022-11-25T23:18:54.772Z,101460.98
2022-11-25T23:21:28.997Z,101466.80
2022-11-25T23:23:59.660Z,101465.79
2022-11-25T23:26:35.029Z,101471.41
2022-11-25T23:29:05.855Z,101477.73
2022-11-25T23:31:38.338Z,101475.48
2022-11-25T23:34:13.494Z,101477.94
2022-11-25T23:36:47.327Z,101484.61
2022-11-25T23:39:23.718Z,101487.41
2022-11-25T23:41:55.758Z,101493.02
2022-11-25T23:44:28.766Z,101491.80
2022-11-25T23:47:01.813Z,101494.94
2022-11-25T23:49:37.381Z,101493.90
2022-11-25T23:52:09.410Z,101497.56
2022-11-25T23:54:42.500Z,101500.54
2022-11-25T23:57:17.048Z,101500.02
2022-11-25T23:59:48.638Z,101505.77
